createdAt,value
2022-09-12T00:00:26.536Z,86.20
2022-09-12T00:00:58.131Z,86.30
2022-09-12T00:01:29.729Z,86.30
2022-09-12T00:02:01.341Z,86.20
2022-09-12T00:02:32.903Z,86.20
2022-09-12T00:03:04.459Z,86.20
2022-09-12T00:03:36.028Z,86.20
2022-09-12T00:04:07.582Z,86.20
2022-09-12T00:04:39.137Z,86.10
2022-09-12T00:05:10.695Z,86.20
2022-09-12T00:05:42.240Z,86.10
2022-09-12T00:06:13.816Z,86.10
2022-09-12T00:06:45.363Z,86.20
2022-09-12T00:07:16.940Z,86.10
2022-09-12T00:07:48.489Z,86.20
2022-09-12T00:08:20.036Z,86.20
2022-09-12T00:08:51.615Z,86.10
2022-09-12T00:09:23.172Z,86.10
2022-09-12T00:09:54.732Z,86.10
2022-09-12T00:10:26.266Z,86.10
2022-09-12T00:10:57.813Z,86.20
2022-09-12T00:11:29.354Z,86.20
2022-09-12T00:12:00.898Z,86.10
2022-09-12T00:12:32.450Z,86.10
2022-09-12T00:13:03.999Z,86.10
2022-09-12T00:13:38.389Z,86.10
2022-09-12T00:14:12.982Z,86.10
2022-09-12T00:14:44.548Z,86.00
2022-09-12T00:15:16.095Z,86.10
2022-09-12T00:15:47.644Z,86.20
2022-09-12T00:16:19.218Z,86.10
2022-09-12T00:16:50.849Z,86.10
2022-09-12T00:17:22.424Z,86.10
2022-09-12T00:17:53.998Z,86.10
2022-09-12T00:18:25.556Z,86.10
2022-09-12T00:18:57.100Z,86.10
2022-09-12T00:19:28.681Z,86.10
2022-09-12T00:20:00.242Z,86.10
2022-09-12T00:20:31.789Z,86.10
2022-09-12T00:21:03.324Z,86.10
2022-09-12T00:21:34.876Z,86.10
2022-09-12T00:22:06.427Z,86.10
2022-09-12T00:22:37.974Z,86.10
2022-09-12T00:23:09.510Z,86.10
2022-09-12T00:23:41.085Z,86.10
2022-09-12T00:24:12.660Z,86.10
2022-09-12T00:24:44.222Z,86.00
2022-09-12T00:25:15.762Z,86.80
2022-09-12T00:25:47.307Z,86.10
2022-09-12T00:26:18.847Z,86.10
2022-09-12T00:26:50.387Z,86.00
2022-09-12T00:27:21.967Z,86.00
2022-09-12T00:27:53.515Z,86.10
2022-09-12T00:28:25.057Z,86.00
2022-09-12T00:28:56.635Z,86.00
2022-09-12T00:29:28.198Z,86.00
2022-09-12T00:29:59.759Z,86.00
2022-09-12T00:30:31.300Z,86.10
2022-09-12T00:31:02.855Z,86.00
2022-09-12T00:31:34.441Z,86.00
2022-09-12T00:32:05.992Z,86.00
2022-09-12T00:32:37.554Z,85.90
2022-09-12T00:33:09.109Z,86.00
2022-09-12T00:33:40.653Z,85.90
2022-09-12T00:34:12.218Z,85.90
2022-09-12T00:34:43.797Z,85.80
2022-09-12T00:35:15.381Z,85.80
2022-09-12T00:35:46.921Z,86.00
2022-09-12T00:36:18.473Z,86.10
2022-09-12T00:36:50.030Z,86.00
2022-09-12T00:37:21.583Z,85.90
2022-09-12T00:37:53.134Z,86.00
2022-09-12T00:38:24.686Z,85.90
2022-09-12T00:38:56.222Z,86.00
2022-09-12T00:39:27.795Z,86.00
2022-09-12T00:39:59.379Z,86.00
2022-09-12T00:40:31.016Z,85.90
2022-09-12T00:41:02.573Z,85.80
2022-09-12T00:41:34.121Z,85.80
2022-09-12T00:42:05.671Z,86.00
2022-09-12T00:42:37.236Z,85.90
2022-09-12T00:43:08.767Z,85.80
2022-09-12T00:43:40.304Z,86.00
2022-09-12T00:44:11.873Z,85.90
2022-09-12T00:44:43.425Z,85.90
2022-09-12T00:45:14.980Z,85.90
2022-09-12T00:45:46.562Z,85.90
2022-09-12T00:46:18.142Z,85.90
2022-09-12T00:46:49.693Z,85.80
2022-09-12T00:47:21.237Z,85.80
2022-09-12T00:47:52.786Z,85.80
2022-09-12T00:48:24.343Z,85.90
2022-09-12T00:48:55.900Z,85.90
2022-09-12T00:49:27.482Z,85.80
2022-09-12T00:49:59.038Z,85.80
2022-09-12T00:50:30.595Z,85.80
2022-09-12T00:51:02.176Z,85.80
2022-09-12T00:51:33.727Z,85.80
2022-09-12T00:52:05.274Z,85.80
2022-09-12T00:52:36.824Z,85.70
2022-09-12T00:53:08.380Z,85.70
2022-09-12T00:53:39.929Z,85.70
2022-09-12T00:54:11.500Z,85.80
2022-09-12T00:54:43.059Z,85.80
2022-09-12T00:55:14.614Z,85.80
2022-09-12T00:55:46.173Z,85.70
2022-09-12T00:56:17.758Z,85.80
2022-09-12T00:56:49.296Z,85.70
2022-09-12T00:57:20.833Z,85.70
2022-09-12T00:57:52.385Z,85.70
2022-09-12T00:58:23.929Z,85.70
2022-09-12T00:58:55.470Z,85.70
2022-09-12T00:59:27.013Z,85.70
2022-09-12T00:59:58.558Z,85.70
2022-09-12T01:00:30.110Z,85.70
2022-09-12T01:01:01.739Z,85.70
2022-09-12T01:01:33.503Z,85.70
2022-09-12T01:02:05.207Z,85.70
2022-09-12T01:02:36.806Z,85.70
2022-09-12T01:03:08.354Z,85.70
2022-09-12T01:03:39.887Z,85.70
2022-09-12T01:04:11.443Z,85.80
2022-09-12T01:04:43.007Z,85.80
2022-09-12T01:05:14.535Z,85.80
2022-09-12T01:05:46.076Z,85.70
2022-09-12T01:06:20.519Z,85.80
2022-09-12T01:06:52.092Z,85.70
2022-09-12T01:07:23.640Z,85.70
2022-09-12T01:07:55.197Z,85.70
2022-09-12T01:08:26.741Z,85.80
2022-09-12T01:08:58.245Z,85.70
2022-09-12T01:09:29.788Z,85.70
2022-09-12T01:10:01.348Z,85.70
2022-09-12T01:10:32.903Z,85.70
2022-09-12T01:11:04.441Z,85.70
2022-09-12T01:11:35.973Z,85.60
2022-09-12T01:12:07.558Z,85.60
2022-09-12T01:12:39.097Z,85.70
2022-09-12T01:13:10.657Z,85.60
2022-09-12T01:13:42.234Z,85.60
2022-09-12T01:14:13.779Z,85.60
2022-09-12T01:14:45.338Z,85.60
2022-09-12T01:15:16.942Z,85.60
2022-09-12T01:15:48.498Z,85.60
2022-09-12T01:16:20.097Z,85.70
2022-09-12T01:16:51.747Z,85.70
2022-09-12T01:17:23.323Z,85.60
2022-09-12T01:17:54.863Z,85.60
2022-09-12T01:18:26.428Z,85.60
2022-09-12T01:18:57.980Z,85.60
2022-09-12T01:19:29.536Z,85.60
2022-09-12T01:20:01.092Z,85.60
2022-09-12T01:20:32.642Z,85.60
2022-09-12T01:21:04.185Z,85.60
2022-09-12T01:21:35.755Z,85.70
2022-09-12T01:22:07.306Z,85.70
2022-09-12T01:22:38.886Z,85.70
2022-09-12T01:23:10.436Z,85.70
2022-09-12T01:23:41.981Z,85.70
2022-09-12T01:24:13.537Z,85.70
2022-09-12T01:24:45.101Z,85.70
2022-09-12T01:25:16.642Z,85.70
2022-09-12T01:25:48.184Z,85.70
2022-09-12T01:26:19.747Z,85.70
2022-09-12T01:26:51.328Z,85.70
2022-09-12T01:27:22.876Z,85.60
2022-09-12T01:27:54.436Z,85.70
2022-09-12T01:28:25.999Z,85.70
2022-09-12T01:28:57.555Z,85.70
2022-09-12T01:29:29.125Z,85.60
2022-09-12T01:30:00.679Z,85.60
2022-09-12T01:30:32.214Z,85.70
2022-09-12T01:31:03.751Z,85.70
2022-09-12T01:31:35.297Z,85.70
2022-09-12T01:32:06.924Z,85.70
2022-09-12T01:32:38.542Z,85.70
2022-09-12T01:33:10.084Z,85.60
2022-09-12T01:33:41.618Z,85.50
2022-09-12T01:34:13.182Z,85.50
2022-09-12T01:34:44.745Z,85.50
2022-09-12T01:35:16.294Z,85.60
2022-09-12T01:35:47.838Z,85.60
2022-09-12T01:36:19.385Z,85.50
2022-09-12T01:36:50.948Z,85.50
2022-09-12T01:37:22.498Z,85.50
2022-09-12T01:37:54.075Z,85.50
2022-09-12T01:38:25.622Z,85.60
2022-09-12T01:38:57.190Z,85.60
2022-09-12T01:39:28.758Z,85.50
2022-09-12T01:40:00.436Z,86.30
2022-09-12T01:40:32.020Z,85.50
2022-09-12T01:41:03.579Z,85.50
2022-09-12T01:41:35.127Z,85.60
2022-09-12T01:42:06.688Z,85.50
2022-09-12T01:42:38.240Z,85.50
2022-09-12T01:43:09.788Z,85.50
2022-09-12T01:43:41.336Z,85.50
2022-09-12T01:44:12.914Z,85.40
2022-09-12T01:44:44.477Z,85.50
2022-09-12T01:45:16.041Z,85.50
2022-09-12T01:45:47.660Z,85.50
2022-09-12T01:46:19.212Z,85.50
2022-09-12T01:46:50.754Z,85.60
2022-09-12T01:47:22.317Z,85.50
2022-09-12T01:47:53.857Z,85.50
2022-09-12T01:48:25.401Z,85.50
2022-09-12T01:48:56.950Z,85.40
2022-09-12T01:49:28.530Z,85.50
2022-09-12T01:50:00.098Z,85.40
2022-09-12T01:50:31.651Z,85.50
2022-09-12T01:51:03.210Z,85.50
2022-09-12T01:51:34.767Z,85.50
2022-09-12T01:52:06.322Z,85.50
2022-09-12T01:52:37.863Z,85.60
2022-09-12T01:53:09.416Z,85.50
2022-09-12T01:53:41.232Z,85.50
2022-09-12T01:54:12.821Z,85.50
2022-09-12T01:54:44.401Z,85.60
2022-09-12T01:55:15.956Z,85.50
2022-09-12T01:55:47.513Z,85.50
2022-09-12T01:56:19.065Z,85.50
2022-09-12T01:56:50.608Z,85.50
2022-09-12T01:57:22.149Z,85.50
2022-09-12T01:57:53.688Z,85.40
2022-09-12T01:58:25.234Z,85.50
2022-09-12T01:58:56.815Z,85.40
2022-09-12T01:59:28.366Z,85.40
2022-09-12T01:59:59.906Z,85.50
2022-09-12T02:00:31.466Z,85.40
2022-09-12T02:01:03.087Z,85.50
2022-09-12T02:01:34.686Z,85.40
2022-09-12T02:02:06.308Z,85.40
2022-09-12T02:02:37.906Z,85.50
2022-09-12T02:03:09.466Z,85.50
2022-09-12T02:03:41.038Z,85.40
2022-09-12T02:04:12.578Z,85.40
2022-09-12T02:04:44.147Z,85.50
2022-09-12T02:05:15.692Z,85.50
2022-09-12T02:05:47.244Z,85.40
2022-09-12T02:06:18.800Z,85.40
2022-09-12T02:06:50.344Z,85.40
2022-09-12T02:07:21.899Z,85.40
2022-09-12T02:07:53.456Z,85.50
2022-09-12T02:08:25.008Z,85.30
2022-09-12T02:08:56.541Z,85.40
2022-09-12T02:09:28.120Z,85.40
2022-09-12T02:09:59.664Z,85.40
2022-09-12T02:10:32.723Z,85.40
2022-09-12T02:11:04.428Z,85.40
2022-09-12T02:11:35.973Z,85.40
2022-09-12T02:12:07.523Z,85.40
2022-09-12T02:12:39.073Z,85.40
2022-09-12T02:13:10.609Z,85.40
2022-09-12T02:13:42.154Z,85.40
2022-09-12T02:14:13.728Z,85.40
2022-09-12T02:14:45.307Z,85.40
2022-09-12T02:15:16.851Z,85.40
2022-09-12T02:15:48.403Z,85.40
2022-09-12T02:16:20.011Z,85.40
2022-09-12T02:16:51.606Z,85.40
2022-09-12T02:17:23.142Z,85.40
2022-09-12T02:17:54.693Z,85.40
2022-09-12T02:18:26.248Z,85.40
2022-09-12T02:18:57.789Z,85.40
2022-09-12T02:19:29.337Z,85.40
2022-09-12T02:20:00.916Z,85.40
2022-09-12T02:20:47.523Z,85.30
2022-09-12T02:21:20.240Z,85.40
2022-09-12T02:21:51.781Z,85.40
2022-09-12T02:22:23.325Z,85.20
2022-09-12T02:22:54.864Z,85.20
2022-09-12T02:23:26.420Z,85.20
2022-09-12T02:23:57.980Z,85.30
2022-09-12T02:24:29.534Z,85.20
2022-09-12T02:25:01.117Z,85.30
2022-09-12T02:25:32.655Z,85.20
2022-09-12T02:26:04.194Z,85.20
2022-09-12T02:26:35.742Z,85.20
2022-09-12T02:27:07.291Z,85.20
2022-09-12T02:27:38.844Z,85.20
2022-09-12T02:28:10.394Z,85.20
2022-09-12T02:28:42.047Z,85.20
2022-09-12T02:29:13.619Z,85.20
2022-09-12T02:29:45.203Z,85.20
2022-09-12T02:30:16.767Z,85.10
2022-09-12T02:30:48.368Z,85.20
2022-09-12T02:31:19.953Z,85.20
2022-09-12T02:31:51.495Z,85.20
2022-09-12T02:32:23.044Z,85.30
2022-09-12T02:32:54.588Z,85.10
2022-09-12T02:33:26.133Z,85.10
2022-09-12T02:33:57.677Z,85.10
2022-09-12T02:34:29.248Z,85.10
2022-09-12T02:35:00.797Z,85.10
2022-09-12T02:35:32.354Z,85.10
2022-09-12T02:36:03.939Z,85.10
2022-09-12T02:36:35.497Z,85.20
2022-09-12T02:37:07.059Z,85.20
2022-09-12T02:37:38.611Z,85.20
2022-09-12T02:38:10.164Z,85.20
2022-09-12T02:38:41.737Z,85.10
2022-09-12T02:39:13.314Z,85.20
2022-09-12T02:39:45.587Z,85.20
2022-09-12T02:40:17.341Z,85.10
2022-09-12T02:40:48.889Z,85.10
2022-09-12T02:41:20.440Z,85.20
2022-09-12T02:41:52.028Z,85.20
2022-09-12T02:42:23.577Z,85.10
2022-09-12T02:42:55.127Z,85.10
2022-09-12T02:43:26.696Z,85.10
2022-09-12T02:43:58.232Z,85.10
2022-09-12T02:44:29.788Z,85.20
2022-09-12T02:45:01.318Z,85.10
2022-09-12T02:45:32.897Z,85.10
2022-09-12T02:46:04.512Z,85.10
2022-09-12T02:46:36.131Z,85.00
2022-09-12T02:47:07.721Z,85.10
2022-09-12T02:47:39.278Z,85.10
2022-09-12T02:48:12.810Z,85.70
2022-09-12T02:48:45.198Z,85.00
2022-09-12T02:49:16.805Z,85.00
2022-09-12T02:49:48.362Z,85.00
2022-09-12T02:50:19.967Z,85.00
2022-09-12T02:50:51.510Z,85.00
2022-09-12T02:51:23.753Z,85.00
2022-09-12T02:51:55.417Z,84.90
2022-09-12T02:52:27.031Z,85.00
2022-09-12T02:52:58.593Z,85.00
2022-09-12T02:53:30.151Z,84.80
2022-09-12T02:54:01.732Z,85.00
2022-09-12T02:54:33.296Z,84.90
2022-09-12T02:55:04.852Z,84.90
2022-09-12T02:55:36.397Z,84.90
2022-09-12T02:56:07.953Z,85.00
2022-09-12T02:56:39.509Z,84.90
2022-09-12T02:57:11.061Z,84.80
2022-09-12T02:57:42.626Z,84.70
2022-09-12T02:58:14.165Z,84.80
2022-09-12T02:58:45.774Z,84.90
2022-09-12T02:59:17.365Z,84.90
2022-09-12T02:59:48.945Z,85.00
2022-09-12T03:00:20.498Z,84.90
2022-09-12T03:00:52.064Z,84.90
2022-09-12T03:01:23.698Z,84.80
2022-09-12T03:01:55.312Z,84.80
2022-09-12T03:02:26.932Z,84.90
2022-09-12T03:02:58.534Z,84.80
2022-09-12T03:03:30.087Z,84.90
2022-09-12T03:04:01.639Z,84.80
2022-09-12T03:04:33.189Z,84.90
2022-09-12T03:05:04.733Z,84.80
2022-09-12T03:05:36.312Z,84.90
2022-09-12T03:06:07.847Z,84.90
2022-09-12T03:06:39.402Z,84.70
2022-09-12T03:07:10.960Z,84.90
2022-09-12T03:07:42.522Z,84.70
2022-09-12T03:08:14.085Z,84.70
2022-09-12T03:08:45.712Z,85.70
2022-09-12T03:09:17.388Z,84.80
2022-09-12T03:09:48.937Z,84.70
2022-09-12T03:10:20.493Z,84.80
2022-09-12T03:10:52.092Z,84.80
2022-09-12T03:11:23.641Z,84.70
2022-09-12T03:11:55.198Z,84.70
2022-09-12T03:12:26.749Z,84.70
2022-09-12T03:12:58.306Z,84.80
2022-09-12T03:13:29.857Z,84.70
2022-09-12T03:14:01.409Z,84.70
2022-09-12T03:14:32.973Z,84.70
2022-09-12T03:15:04.526Z,84.70
2022-09-12T03:15:36.102Z,84.70
2022-09-12T03:16:07.714Z,84.70
2022-09-12T03:16:39.415Z,84.70
2022-09-12T03:17:10.975Z,84.70
2022-09-12T03:17:42.572Z,84.70
2022-09-12T03:18:14.116Z,84.60
2022-09-12T03:18:45.756Z,84.60
2022-09-12T03:19:17.388Z,84.60
2022-09-12T03:19:48.965Z,84.60
2022-09-12T03:20:20.516Z,84.70
2022-09-12T03:20:52.105Z,84.70
2022-09-12T03:21:23.646Z,84.60
2022-09-12T03:21:55.194Z,84.50
2022-09-12T03:22:26.738Z,84.60
2022-09-12T03:22:58.301Z,84.60
2022-09-12T03:23:29.838Z,84.60
2022-09-12T03:24:01.382Z,84.70
2022-09-12T03:24:32.946Z,84.70
2022-09-12T03:25:04.507Z,84.50
2022-09-12T03:25:36.067Z,84.50
2022-09-12T03:26:07.651Z,84.50
2022-09-12T03:26:39.194Z,84.50
2022-09-12T03:27:10.750Z,84.70
2022-09-12T03:27:42.321Z,84.50
2022-09-12T03:28:13.922Z,84.60
2022-09-12T03:28:45.559Z,84.50
2022-09-12T03:29:17.243Z,84.50
2022-09-12T03:29:48.795Z,84.60
2022-09-12T03:30:20.392Z,84.50
2022-09-12T03:30:52.008Z,84.50
2022-09-12T03:31:23.572Z,84.60
2022-09-12T03:31:55.124Z,84.60
2022-09-12T03:32:26.668Z,84.50
2022-09-12T03:32:58.212Z,84.50
2022-09-12T03:33:29.764Z,84.60
2022-09-12T03:34:01.313Z,84.50
2022-09-12T03:34:32.890Z,84.50
2022-09-12T03:35:04.443Z,84.50
2022-09-12T03:35:35.994Z,84.60
2022-09-12T03:36:07.537Z,84.50
2022-09-12T03:36:39.094Z,84.50
2022-09-12T03:37:10.666Z,84.40
2022-09-12T03:37:42.206Z,84.50
2022-09-12T03:38:13.752Z,84.50
2022-09-12T03:38:45.538Z,84.50
2022-09-12T03:39:17.190Z,84.60
2022-09-12T03:39:48.835Z,84.50
2022-09-12T03:40:20.417Z,84.50
2022-09-12T03:40:54.873Z,84.50
2022-09-12T03:41:26.671Z,84.50
2022-09-12T03:41:58.264Z,84.50
2022-09-12T03:42:29.815Z,84.50
2022-09-12T03:43:01.392Z,84.60
2022-09-12T03:43:32.993Z,84.60
2022-09-12T03:44:04.554Z,84.40
2022-09-12T03:44:36.113Z,84.40
2022-09-12T03:45:07.657Z,84.50
2022-09-12T03:45:39.231Z,84.50
2022-09-12T03:46:10.808Z,84.50
2022-09-12T03:46:42.357Z,84.50
2022-09-12T03:47:13.901Z,84.50
2022-09-12T03:47:45.482Z,84.50
2022-09-12T03:48:17.046Z,84.50
2022-09-12T03:48:48.598Z,84.60
2022-09-12T03:49:20.156Z,84.50
2022-09-12T03:49:51.711Z,84.50
2022-09-12T03:50:23.258Z,84.50
2022-09-12T03:50:54.803Z,84.40
2022-09-12T03:51:26.335Z,84.30
2022-09-12T03:51:57.892Z,84.30
2022-09-12T03:52:29.468Z,84.30
2022-09-12T03:53:01.003Z,84.40
2022-09-12T03:53:32.567Z,84.30
2022-09-12T03:54:04.185Z,84.30
2022-09-12T03:54:35.740Z,84.30
2022-09-12T03:55:07.314Z,84.20
2022-09-12T03:55:38.861Z,84.20
2022-09-12T03:56:10.400Z,84.30
2022-09-12T03:56:41.953Z,84.20
2022-09-12T03:57:13.497Z,84.30
2022-09-12T03:57:45.049Z,84.30
2022-09-12T03:58:16.596Z,84.30
2022-09-12T03:58:48.149Z,84.30
2022-09-12T03:59:19.729Z,84.30
2022-09-12T03:59:51.277Z,85.20
2022-09-12T04:00:22.854Z,84.30
2022-09-12T04:00:54.464Z,84.30
2022-09-12T04:01:26.081Z,84.30
2022-09-12T04:01:57.658Z,84.30
2022-09-12T04:02:29.237Z,84.30
2022-09-12T04:03:00.799Z,84.30
2022-09-12T04:03:32.347Z,84.30
2022-09-12T04:04:03.898Z,84.30
2022-09-12T04:04:35.457Z,84.30
2022-09-12T04:05:07.020Z,84.30
2022-09-12T04:05:38.640Z,84.30
2022-09-12T04:06:10.195Z,84.30
2022-09-12T04:06:41.750Z,84.40
2022-09-12T04:07:13.303Z,84.30
2022-09-12T04:07:44.853Z,84.30
2022-09-12T04:08:16.399Z,84.30
2022-09-12T04:08:47.937Z,84.30
2022-09-12T04:09:19.502Z,84.30
2022-09-12T04:09:51.051Z,84.20
2022-09-12T04:10:22.609Z,84.30
2022-09-12T04:10:54.151Z,84.40
2022-09-12T04:11:25.721Z,84.30
2022-09-12T04:11:57.262Z,84.30
2022-09-12T04:12:28.822Z,84.30
2022-09-12T04:13:00.379Z,84.20
2022-09-12T04:13:32.000Z,84.20
2022-09-12T04:14:03.559Z,84.30
2022-09-12T04:14:35.128Z,85.10
2022-09-12T04:15:06.683Z,84.20
2022-09-12T04:15:38.231Z,84.20
2022-09-12T04:16:10.416Z,84.20
2022-09-12T04:16:42.087Z,84.20
2022-09-12T04:17:13.737Z,84.20
2022-09-12T04:17:45.284Z,84.20
2022-09-12T04:18:16.832Z,84.30
2022-09-12T04:18:48.558Z,84.30
2022-09-12T04:19:20.210Z,84.20
2022-09-12T04:19:51.757Z,84.30
2022-09-12T04:20:23.309Z,84.30
2022-09-12T04:20:54.849Z,84.20
2022-09-12T04:21:26.389Z,84.20
2022-09-12T04:21:57.925Z,84.20
2022-09-12T04:22:29.466Z,84.20
2022-09-12T04:23:01.005Z,84.20
2022-09-12T04:23:32.562Z,84.20
2022-09-12T04:24:04.138Z,84.20
2022-09-12T04:24:35.693Z,84.20
2022-09-12T04:25:07.280Z,84.10
2022-09-12T04:25:38.840Z,84.10
2022-09-12T04:26:10.405Z,84.00
2022-09-12T04:26:41.955Z,84.00
2022-09-12T04:27:13.504Z,84.00
2022-09-12T04:27:45.045Z,84.00
2022-09-12T04:28:16.590Z,84.00
2022-09-12T04:28:48.184Z,84.00
2022-09-12T04:29:19.780Z,84.20
2022-09-12T04:29:51.323Z,84.10
2022-09-12T04:30:22.955Z,84.00
2022-09-12T04:30:54.567Z,84.00
2022-09-12T04:31:26.137Z,84.00
2022-09-12T04:31:57.742Z,84.10
2022-09-12T04:32:29.281Z,84.00
2022-09-12T04:33:03.861Z,84.00
2022-09-12T04:33:37.711Z,84.00
2022-09-12T04:34:09.394Z,84.00
2022-09-12T04:34:40.934Z,83.90
2022-09-12T04:35:12.506Z,84.00
2022-09-12T04:35:44.054Z,84.00
2022-09-12T04:36:15.598Z,84.00
2022-09-12T04:36:47.151Z,83.90
2022-09-12T04:37:18.709Z,83.90
2022-09-12T04:37:50.255Z,83.90
2022-09-12T04:38:21.835Z,84.00
2022-09-12T04:38:53.375Z,83.90
2022-09-12T04:39:24.943Z,83.90
2022-09-12T04:39:56.519Z,84.70
2022-09-12T04:40:28.088Z,83.90
2022-09-12T04:40:59.644Z,83.90
2022-09-12T04:41:31.205Z,83.90
2022-09-12T04:42:02.752Z,83.90
2022-09-12T04:42:34.312Z,83.90
2022-09-12T04:43:05.852Z,84.00
2022-09-12T04:43:37.396Z,83.90
2022-09-12T04:44:08.953Z,83.90
2022-09-12T04:44:40.492Z,83.90
2022-09-12T04:45:12.043Z,83.80
2022-09-12T04:45:43.602Z,83.90
2022-09-12T04:46:15.173Z,83.90
2022-09-12T04:46:46.778Z,83.90
2022-09-12T04:47:18.362Z,83.90
2022-09-12T04:47:49.901Z,83.90
2022-09-12T04:48:21.458Z,84.00
2022-09-12T04:48:56.614Z,84.00
2022-09-12T04:49:28.692Z,83.90
2022-09-12T04:50:00.258Z,83.90
2022-09-12T04:50:31.816Z,83.90
2022-09-12T04:51:03.367Z,83.90
2022-09-12T04:51:34.928Z,83.80
2022-09-12T04:52:06.469Z,83.90
2022-09-12T04:52:38.008Z,83.70
2022-09-12T04:53:09.585Z,83.70
2022-09-12T04:53:41.141Z,83.70
2022-09-12T04:54:12.680Z,83.90
2022-09-12T04:54:44.229Z,83.90
2022-09-12T04:55:15.788Z,83.90
2022-09-12T04:55:47.345Z,83.90
2022-09-12T04:56:18.884Z,83.70
2022-09-12T04:56:50.438Z,83.70
2022-09-12T04:57:21.989Z,83.70
2022-09-12T04:57:53.533Z,83.70
2022-09-12T04:58:25.117Z,83.80
2022-09-12T04:58:56.690Z,83.70
2022-09-12T04:59:28.259Z,83.70
2022-09-12T05:00:01.865Z,83.80
2022-09-12T05:00:36.739Z,83.80
2022-09-12T05:01:08.374Z,83.70
2022-09-12T05:01:40.004Z,83.60
2022-09-12T05:02:11.658Z,83.70
2022-09-12T05:02:43.244Z,83.70
2022-09-12T05:03:14.791Z,83.70
2022-09-12T05:03:46.420Z,83.70
2022-09-12T05:04:17.987Z,83.70
2022-09-12T05:04:49.547Z,83.80
2022-09-12T05:05:21.119Z,83.70
2022-09-12T05:05:56.336Z,83.70
2022-09-12T05:06:28.133Z,83.70
2022-09-12T05:06:59.680Z,83.70
2022-09-12T05:07:31.213Z,83.60
2022-09-12T05:08:02.760Z,83.60
2022-09-12T05:08:34.310Z,83.70
2022-09-12T05:09:05.856Z,83.70
2022-09-12T05:09:37.421Z,83.70
2022-09-12T05:10:08.952Z,83.70
2022-09-12T05:10:40.594Z,83.70
2022-09-12T05:11:12.126Z,83.60
2022-09-12T05:12:35.206Z,83.60
2022-09-12T05:13:06.754Z,83.60
2022-09-12T05:13:38.298Z,83.60
2022-09-12T05:14:09.878Z,83.60
2022-09-12T05:14:41.435Z,83.70
2022-09-12T05:15:12.991Z,83.60
2022-09-12T05:15:44.541Z,83.70
2022-09-12T05:16:16.139Z,83.60
2022-09-12T05:16:49.563Z,83.60
2022-09-12T05:17:21.276Z,83.60
2022-09-12T05:17:52.869Z,83.60
2022-09-12T05:18:24.413Z,83.70
2022-09-12T05:18:55.963Z,83.50
2022-09-12T05:19:27.553Z,83.60
2022-09-12T05:19:59.105Z,83.70
2022-09-12T05:20:30.713Z,83.70
2022-09-12T05:21:02.269Z,83.70
2022-09-12T05:21:33.806Z,83.60
2022-09-12T05:22:05.358Z,83.60
2022-09-12T05:22:36.897Z,83.60
2022-09-12T05:23:08.446Z,83.60
2022-09-12T05:23:40.007Z,83.70
2022-09-12T05:24:11.636Z,83.60
2022-09-12T05:24:45.281Z,83.60
2022-09-12T05:25:20.116Z,83.60
2022-09-12T05:25:51.705Z,83.60
2022-09-12T05:26:23.293Z,83.60
2022-09-12T05:26:54.866Z,83.60
2022-09-12T05:27:26.412Z,83.60
2022-09-12T05:27:57.979Z,83.60
2022-09-12T05:28:29.543Z,83.60
2022-09-12T05:29:01.093Z,83.50
2022-09-12T05:29:32.660Z,83.50
2022-09-12T05:30:04.221Z,83.50
2022-09-12T05:30:35.799Z,83.50
2022-09-12T05:31:07.357Z,83.60
2022-09-12T05:31:38.943Z,83.60
2022-09-12T05:32:10.501Z,83.50
2022-09-12T05:32:42.047Z,83.50
2022-09-12T05:33:13.594Z,83.50
2022-09-12T05:33:45.129Z,83.50
2022-09-12T05:34:16.697Z,83.60
2022-09-12T05:34:48.303Z,83.60
2022-09-12T05:35:19.846Z,83.60
2022-09-12T05:35:51.398Z,83.50
2022-09-12T05:36:22.958Z,83.60
2022-09-12T05:36:54.548Z,83.50
2022-09-12T05:37:26.102Z,83.50
2022-09-12T05:37:57.651Z,83.60
2022-09-12T05:38:29.195Z,83.60
2022-09-12T05:39:00.755Z,83.60
2022-09-12T05:39:32.326Z,83.60
2022-09-12T05:40:03.912Z,83.60
2022-09-12T05:40:35.545Z,83.60
2022-09-12T05:41:07.105Z,83.50
2022-09-12T05:41:38.683Z,83.60
2022-09-12T05:42:10.229Z,83.60
2022-09-12T05:42:41.781Z,83.50
2022-09-12T05:43:13.320Z,83.50
2022-09-12T05:43:44.872Z,83.40
2022-09-12T05:44:16.424Z,83.60
2022-09-12T05:44:47.983Z,83.50
2022-09-12T05:45:19.572Z,83.50
2022-09-12T05:45:51.149Z,83.60
2022-09-12T05:46:22.753Z,83.50
2022-09-12T05:46:54.311Z,83.40
2022-09-12T05:47:25.862Z,83.50
2022-09-12T05:47:57.453Z,83.60
2022-09-12T05:48:29.010Z,83.50
2022-09-12T05:49:00.560Z,83.50
2022-09-12T05:49:32.118Z,83.60
2022-09-12T05:50:03.659Z,83.70
2022-09-12T05:50:35.195Z,83.50
2022-09-12T05:51:06.759Z,83.50
2022-09-12T05:51:38.324Z,83.50
2022-09-12T05:52:09.868Z,83.40
2022-09-12T05:52:41.468Z,83.50
2022-09-12T05:53:13.023Z,83.50
2022-09-12T05:53:44.565Z,83.50
2022-09-12T05:54:16.120Z,83.50
2022-09-12T05:54:47.682Z,83.40
2022-09-12T05:55:19.237Z,83.30
2022-09-12T05:55:50.793Z,83.50
2022-09-12T05:56:22.334Z,83.30
2022-09-12T05:56:53.878Z,83.50
2022-09-12T05:57:25.440Z,83.30
2022-09-12T05:57:57.035Z,83.40
2022-09-12T05:58:28.574Z,83.40
2022-09-12T05:59:00.194Z,83.40
2022-09-12T05:59:31.758Z,83.40
2022-09-12T06:00:03.350Z,83.30
2022-09-12T06:00:34.958Z,83.50
2022-09-12T06:01:06.649Z,83.50
2022-09-12T06:01:38.246Z,83.50
2022-09-12T06:02:09.909Z,83.40
2022-09-12T06:02:41.535Z,83.50
2022-09-12T06:03:13.109Z,83.50
2022-09-12T06:03:44.651Z,83.40
2022-09-12T06:04:16.220Z,83.30
2022-09-12T06:04:47.772Z,83.50
2022-09-12T06:05:19.321Z,83.30
2022-09-12T06:05:50.904Z,83.50
2022-09-12T06:06:22.468Z,83.50
2022-09-12T06:06:54.012Z,83.40
2022-09-12T06:07:25.557Z,83.60
2022-09-12T06:07:57.106Z,83.40
2022-09-12T06:08:28.654Z,83.50
2022-09-12T06:09:00.205Z,84.30
2022-09-12T06:09:31.769Z,84.00
2022-09-12T06:10:03.321Z,83.60
2022-09-12T06:10:34.878Z,83.50
2022-09-12T06:11:06.470Z,83.60
2022-09-12T06:11:38.028Z,83.60
2022-09-12T06:12:09.584Z,83.50
2022-09-12T06:12:41.136Z,83.50
2022-09-12T06:13:12.679Z,83.40
2022-09-12T06:13:44.251Z,83.50
2022-09-12T06:14:15.852Z,83.40
2022-09-12T06:14:47.413Z,83.30
2022-09-12T06:15:18.979Z,83.30
2022-09-12T06:15:50.592Z,83.30
2022-09-12T06:16:22.181Z,83.50
2022-09-12T06:16:53.820Z,83.40
2022-09-12T06:17:25.392Z,83.30
2022-09-12T06:17:56.932Z,83.40
2022-09-12T06:18:28.482Z,83.40
2022-09-12T06:19:00.067Z,83.50
2022-09-12T06:19:31.624Z,83.50
2022-09-12T06:20:03.173Z,83.50
2022-09-12T06:20:34.722Z,83.40
2022-09-12T06:21:06.257Z,83.50
2022-09-12T06:21:37.821Z,83.50
2022-09-12T06:22:12.322Z,83.40
2022-09-12T06:22:43.858Z,83.30
2022-09-12T06:23:15.406Z,83.50
2022-09-12T06:23:46.975Z,83.50
2022-09-12T06:24:18.559Z,83.50
2022-09-12T06:24:51.336Z,83.50
2022-09-12T06:25:24.371Z,83.50
2022-09-12T06:25:55.931Z,83.50
2022-09-12T06:26:27.475Z,83.30
2022-09-12T06:26:59.020Z,83.30
2022-09-12T06:27:30.581Z,83.40
2022-09-12T06:28:02.133Z,83.30
2022-09-12T06:28:33.706Z,83.40
2022-09-12T06:29:05.255Z,83.50
2022-09-12T06:29:36.845Z,83.40
2022-09-12T06:30:08.389Z,84.20
2022-09-12T06:30:40.051Z,83.50
2022-09-12T06:31:11.694Z,83.50
2022-09-12T06:31:43.249Z,83.40
2022-09-12T06:32:14.806Z,83.50
2022-09-12T06:32:46.349Z,83.50
2022-09-12T06:33:17.890Z,83.50
2022-09-12T06:33:49.469Z,83.30
2022-09-12T06:34:21.017Z,83.30
2022-09-12T06:34:52.571Z,83.30
2022-09-12T06:35:24.131Z,83.50
2022-09-12T06:35:55.670Z,83.60
2022-09-12T06:36:27.230Z,83.40
2022-09-12T06:36:58.771Z,83.50
2022-09-12T06:37:30.314Z,83.50
2022-09-12T06:38:01.856Z,83.50
2022-09-12T06:38:33.399Z,83.50
2022-09-12T06:39:04.971Z,83.60
2022-09-12T06:39:36.527Z,83.60
2022-09-12T06:40:08.121Z,83.50
2022-09-12T06:40:39.720Z,83.50
2022-09-12T06:41:11.292Z,83.60
2022-09-12T06:41:44.185Z,83.50
2022-09-12T06:42:16.017Z,83.50
2022-09-12T06:42:47.589Z,83.50
2022-09-12T06:43:19.141Z,83.30
2022-09-12T06:43:50.691Z,83.50
2022-09-12T06:44:22.246Z,83.60
2022-09-12T06:44:53.786Z,83.00
2022-09-12T06:45:25.326Z,83.60
2022-09-12T06:45:56.885Z,83.50
2022-09-12T06:46:28.449Z,83.50
2022-09-12T06:47:00.043Z,83.50
2022-09-12T06:47:31.598Z,83.50
2022-09-12T06:48:03.174Z,83.60
2022-09-12T06:48:38.329Z,83.50